• Join FlightAware (Why Join?)
  • Login
  • US Flag 
11:40PM EDT


 

Airport Tracker/Info


-or-


 

Live Flight TrackerFlight Track Log ✈ USC105 ✈ 19-Apr-2013 ✈ KDPA - KYIP

Flight Track Log - Related Links

Times and Time Zones

All times are in EDT time to prevent confusion due to time zone crossing. See the USC105 flight status page for this flight to view local times or setup timezone preferences in your user account.

Time Position Orientation Groundspeed Altitude Reporting Facility
EDT Latitude Longitude Course Direction KTS MPH feet Rate Location/Type
05:53AM 41.9000 -88.2667 160° South 113 130 1,700  Level Chicago TRACON
05:54AM 41.8667 -88.2500 160° South 111 128 2,900 1,140 Climbing Chicago TRACON
05:55AM 41.8333 -88.2333 160° South 115 132 4,000 1,020 Climbing Chicago TRACON
05:56AM 41.8325 -88.2386 258° West 112 129 4,300 1,020 Climbing Chicago Center
05:57AM 41.8306 -88.1839 93° East 142 163 5,400 1,080 Climbing Chicago Center
05:58AM 41.8364 -88.1267 82° East 153 176 6,500 780 Climbing Chicago Center
05:59AM 41.8450 -88.0631 80° East 165 190 7,000 180 Climbing Chicago Center
06:00AM 41.8533 -87.9783 82° East 214 246 6,900 -60 Descending Chicago Center
06:01AM 41.8633 -87.8939 81° East 228 262 6,900  Level Chicago Center
06:01AM 41.8667 -87.8167 87° East 233 268 6,900  Level Chicago TRACON
06:02AM 41.8833 -87.7333 75° East 230 265 6,900  Level Chicago TRACON
06:03AM 41.8833 -87.6500 90° East 234 269 6,900  Level Chicago TRACON
06:04AM 41.9000 -87.5667 75° East 235 270 6,900  Level Chicago TRACON
06:05AM 41.9000 -87.4833 90° East 237 273 6,900  Level Chicago TRACON
06:06AM 41.9167 -87.4000 75° East 236 272 6,900  Level Chicago TRACON
06:08AM 41.9281 -87.2731 83° East 233 268 6,900  Level Chicago Center
06:09AM 41.9364 -87.1869 83° East 233 268 6,900  Level Chicago Center
06:10AM 41.9442 -87.1003 83° East 234 269 6,900  Level Chicago Center
06:11AM 41.9519 -87.0147 83° East 232 267 6,900  Level Chicago Center
06:12AM 41.9614 -86.9292 82° East 233 268 6,900  Level Chicago Center
06:13AM 41.9692 -86.8428 83° East 233 268 6,900  Level Chicago Center
06:14AM 41.9767 -86.7581 83° East 230 265 6,900  Level Chicago Center
06:15AM 41.9856 -86.6808 81° East 228 262 6,900  Level Chicago Center
06:16AM 41.9933 -86.5961 83° East 229 264 6,900  Level Chicago Center
06:17AM 42.0011 -86.5114 83° East 230 265 6,900  Level Chicago Center
06:18AM 42.0083 -86.4275 83° East 228 262 6,900  Level Chicago Center
06:19AM 42.0161 -86.3436 83° East 227 261 6,900  Level Chicago Center
06:20AM 42.0239 -86.2600 83° East 226 260 6,900  Level Chicago Center
06:21AM 42.0319 -86.1758 83° East 228 262 6,900  Level Chicago Center
06:22AM 42.0392 -86.0936 83° East 225 259 6,900  Level Chicago Center
06:23AM 42.0461 -86.0092 84° East 226 260 6,900  Level Chicago Center
06:24AM 42.0536 -85.9281 83° East 221 254 6,900  Level Chicago Center
06:25AM 42.0617 -85.8447 83° East 223 257 6,900  Level Chicago Center
06:26AM 42.0681 -85.7619 84° East 223 257 6,900  Level Chicago Center
06:27AM 42.0761 -85.6803 82° East 221 254 6,900  Level Chicago Center
06:28AM 42.0825 -85.5969 84° East 222 255 6,900  Level Chicago Center
06:29AM 42.0897 -85.5133 83° East 223 257 6,900  Level Chicago Center
06:30AM 42.0975 -85.4297 83° East 225 259 6,900  Level Chicago Center
06:31AM 42.1031 -85.3464 85° East 224 258 6,900  Level Chicago Center
06:32AM 42.1122 -85.2464 83° East 223 257 6,900  Level Chicago Center
06:33AM 42.1186 -85.1625 84° East 225 259 6,900  Level Chicago Center
06:34AM 42.1258 -85.0775 83° East 226 260 6,900  Level Chicago Center
06:35AM 42.1328 -84.9942 84° East 226 260 6,900  Level Chicago Center
06:36AM 42.1394 -84.9144 84° East 218 251 6,900  Level Chicago Center
06:37AM 42.1458 -84.8392 83° East 208 239 7,000 -240 Climbing Chicago Center
06:38AM 42.1506 -84.7642 85° East 202 232 6,500 -660 Descending Chicago Center
06:39AM 42.1578 -84.6797 83° East 219 252 5,700 -780 Descending Chicago Center
06:40AM 42.1633 -84.5886 85° East 237 273 5,000 -660 Descending Chicago Center
06:40AM 42.1661 -84.5614 82° East 239 275 4,900  Descending FAA TRACON SMA TRACON (SMA)
06:41AM 42.1686 -84.5347 83° East 236 272 5,000 120 Climbing FAA TRACON SMA TRACON (SMA)
06:41AM 42.1708 -84.5025 85° East 227 261 5,000 -180 Level FAA TRACON SMA TRACON (SMA)
06:41AM 42.1731 -84.4767 83° East 219 252 4,900  Descending FAA TRACON SMA TRACON (SMA)
06:42AM 42.1747 -84.4519 85° East 217 250 5,000  Climbing FAA TRACON SMA TRACON (SMA)
06:42AM 42.1767 -84.4225 85° East 214 246 4,900  Descending FAA TRACON SMA TRACON (SMA)
06:42AM 42.1783 -84.3986 85° East 211 243 5,000 120 Climbing FAA TRACON SMA TRACON (SMA)
06:43AM 42.1800 -84.3747 85° East 210 242 5,000  Level FAA TRACON SMA TRACON (SMA)
06:43AM 42.1828 -84.3453 83° East 206 237 5,000  Level FAA TRACON SMA TRACON (SMA)
06:43AM 42.1836 -84.3214 87° East 207 238 5,000 -180 Level FAA TRACON SMA TRACON (SMA)
06:44AM 42.1856 -84.2981 84° East 204 235 4,900  Descending FAA TRACON SMA TRACON (SMA)
06:44AM 42.1861 -84.2769 88° East 204 235 5,000 60 Climbing Cleveland Center
06:45AM 42.1928 -84.2017 83° East 201 231 5,000  Level Cleveland Center
06:46AM 42.1969 -84.1289 86° East 196 226 5,000 -600 Level Cleveland Center
06:47AM 42.2036 -84.0481 84° East 225 259 3,900 -900 Descending Cleveland Center
06:48AM 42.2167 -83.9617 78° East 230 265 3,200 -540 Descending Cleveland Center
06:49AM 42.2253 -83.8836 82° East 203 234 2,900 -180 Descending Cleveland Center
06:50AM 42.2333 -83.8139 81° East 189 217 2,900  Level Cleveland Center
06:51AM 42.2500 -83.7475 71° East 177 204 2,900  Level Cleveland Center
06:52AM 42.2619 -83.6864 75° East 174 200 2,900  Level Cleveland Center
06:53AM 42.2822 -83.6283 65° Northeast 163 188 2,900 60 Level Cleveland Center
06:53AM 42.2933 -83.6136 44° Northeast 160 184 3,000  Climbing FAA TRACON SMA TRACON (SMA)
06:54AM 42.3011 -83.5983 55° Northeast 160 184 2,900 -480 Descending FAA TRACON SMA TRACON (SMA)
06:54AM 42.3089 -83.5819 57° Northeast 171 197 2,700 -480 Descending FAA TRACON SMA TRACON (SMA)
06:54AM 42.3189 -83.5608 57° Northeast 172 198 2,600 -300 Descending FAA TRACON SMA TRACON (SMA)
06:55AM 42.3442 -83.5058 58° Northeast 171 197 2,300 -240 Descending FAA TRACON SMA TRACON (SMA)
06:56AM 42.3517 -83.4897 58° Northeast 158 182 2,300  Level FAA TRACON SMA TRACON (SMA)
06:56AM 42.3603 -83.4692 60° Northeast 162 186 2,300  Level FAA TRACON SMA TRACON (SMA)
06:56AM 42.3675 -83.4533 58° Northeast 162 186 2,300  Level FAA TRACON SMA TRACON (SMA)
06:57AM 42.3639 -83.4361 106° East 151 174 2,300  Level FAA TRACON SMA TRACON (SMA)
06:57AM 42.3536 -83.4236 138° Southeast 143 165 2,300  Level FAA TRACON SMA TRACON (SMA)
06:57AM 42.3431 -83.4156 151° Southeast 130 150 2,300  Level FAA TRACON SMA TRACON (SMA)
06:58AM 42.3333 -83.4178 190° South 113 130 2,300  Level FAA TRACON SMA TRACON (SMA)
06:58AM 42.3231 -83.4186 183° South 120 138 2,300  Level FAA TRACON SMA TRACON (SMA)
06:58AM 42.3125 -83.4256 206° Southwest 102 117 2,300 120 Level FAA TRACON SMA TRACON (SMA)
06:59AM 42.3058 -83.4347 225° Southwest 107 123 2,400 -180 Climbing FAA TRACON SMA TRACON (SMA)
06:59AM 42.2972 -83.4467 226° Southwest 123 142 2,200 -600 Descending FAA TRACON SMA TRACON (SMA)
06:59AM 42.2900 -83.4550 220° Southwest 112 129 2,000 -600 Descending FAA TRACON SMA TRACON (SMA)
07:01AM 42.2533 -83.5017 223° Southwest 97 112 1,100 -600 Descending FAA TRACON SMA TRACON (SMA)
07:01AM 42.2458 -83.5089 215° Southwest 95 109 900 -300 Descending FAA TRACON SMA TRACON (SMA)
07:02AM 42.2458 -83.5089 14° North 95 109 900  Level FAA TRACON SMA TRACON (SMA)
07:02AM 42.2458 -83.5089 14° North 95 109 900  Level FAA TRACON SMA TRACON (SMA)